Terminal Aerodrome Forecast
Issued by NWS

Home | Current Version | Previous Version | Text Only | Print | Product List | Glossary On
Versions: 1 2 3 4 5 6 7 8 9 10 11 12 13 14 15 16
000
FTUS41 KALY 250617 AAA
TAFPSF
TAF AMD
KPSF 250617Z 2506/2606 13005KT 6SM -RA BR OVC020
     FM251500 11010G23KT 6SM -RA OVC015
     FM260200 10004KT 4SM -DZ BR OVC007=

USA.gov is the U.S. government's official web portal to all federal, state and local government web resources and services.